Time;durP1;ratioP1;P1;durP2;ratioP2;P2;SDS_P1;SDS_P2;PMS_P1;PMS_P2;Temp;Humidity;BMP_temperature;BMP_pressure;BME280_temperature;BME280_humidity;BME280_pressure;Samples;Min_cycle;Max_cycle;Signal;HPM_P1;HPM_P2
2021/12/26 07:54:29;;;;;;;0.77;0.60;;;;;;;15.20;41.83;100810.72;4847440;29;20122;-82
2021/12/26 07:56:58;;;;;;;0.90;0.60;;;;;;;15.20;41.92;100815.91;4858047;29;20053;-80
2021/12/26 07:59:27;;;;;;;1.35;0.60;;;;;;;15.21;41.86;100815.00;4857394;29;20033;-82
2021/12/26 08:01:53;;;;;;;1.38;0.57;;;;;;;15.21;41.73;100814.16;4840173;29;20636;-82
2021/12/26 08:04:21;;;;;;;0.93;0.60;;;;;;;15.20;41.89;100828.84;4855499;29;20065;-82
2021/12/26 08:09:24;;;;;;;0.80;0.60;;;;;;;15.18;41.74;100830.59;5338384;23;20064;-80
2021/12/26 08:11:51;;;;;;;0.60;0.50;;;;;;;15.19;41.80;100836.63;4893578;29;20094;-80
2021/12/26 08:14:18;;;;;;;0.60;0.50;;;;;;;15.18;41.76;100832.31;4877063;29;20453;-80
2021/12/26 08:16:44;;;;;;;0.80;0.50;;;;;;;15.18;41.54;100834.91;4892904;29;20448;-80
2021/12/26 08:19:10;;;;;;;0.75;0.50;;;;;;;15.18;41.91;100830.59;4878679;29;20037;-78
2021/12/26 08:21:35;;;;;;;0.60;0.50;;;;;;;15.17;41.67;100822.78;4876978;29;20060;-80
2021/12/26 08:24:02;;;;;;;1.05;0.60;;;;;;;15.18;41.91;100821.94;4872577;29;20057;-79
2021/12/26 08:26:27;;;;;;;0.82;0.60;;;;;;;15.18;41.53;100824.53;4876415;29;20037;-80
2021/12/26 08:28:54;;;;;;;0.98;0.60;;;;;;;15.19;41.65;100828.84;4879857;29;20100;-80
2021/12/26 08:31:22;;;;;;;0.77;0.57;;;;;;;15.18;41.55;100824.53;4897296;29;20033;-80
2021/12/26 08:33:48;;;;;;;0.80;0.52;;;;;;;15.17;41.37;100813.28;4880333;29;20109;-80
2021/12/26 08:36:17;;;;;;;0.82;0.70;;;;;;;15.17;41.71;100821.06;4883318;29;20045;-80
2021/12/26 08:38:43;;;;;;;0.68;0.60;;;;;;;15.17;41.65;100826.25;4884837;29;20037;-80
2021/12/26 08:41:09;;;;;;;1.00;0.70;;;;;;;15.17;41.52;100822.78;4868434;29;20044;-80
2021/12/26 08:43:34;;;;;;;1.08;0.80;;;;;;;15.19;41.65;100831.44;4882230;29;20053;-80
2021/12/26 08:46:00;;;;;;;0.85;0.70;;;;;;;15.17;41.66;100821.06;4878783;29;20089;-80
2021/12/26 08:48:28;;;;;;;1.15;0.60;;;;;;;15.18;41.50;100827.13;4893193;29;20033;-80
2021/12/26 08:50:56;;;;;;;0.85;0.68;;;;;;;15.17;41.54;100821.06;4877154;29;20048;-80
2021/12/26 08:53:29;;;;;;;0.70;0.60;;;;;;;15.19;41.66;100821.94;4877892;29;20044;-81
2021/12/26 08:56:21;;;;;;;1.15;0.70;;;;;;;15.20;41.43;100822.81;4894747;29;20145;-81
2021/12/26 08:58:51;;;;;;;1.08;0.80;;;;;;;15.19;41.44;100821.94;4887997;29;20041;-80
2021/12/26 09:01:16;;;;;;;1.05;0.60;;;;;;;15.19;41.64;100826.25;4863010;29;20078;-79
2021/12/26 09:03:42;;;;;;;1.23;0.60;;;;;;;15.19;41.46;100826.25;4892595;29;20037;-81
2021/12/26 09:06:08;;;;;;;1.15;0.70;;;;;;;15.18;41.51;100830.59;4892459;29;20060;-81
2021/12/26 09:08:35;;;;;;;0.95;0.60;;;;;;;15.21;41.21;100834.91;4877031;29;20140;-80
2021/12/26 09:11:02;;;;;;;0.63;0.50;;;;;;;15.20;41.41;100836.63;4862626;29;20078;-81
2021/12/26 09:13:30;;;;;;;1.20;0.75;;;;;;;15.21;41.38;100838.34;4894699;29;20062;-81
2021/12/26 09:15:56;;;;;;;0.95;0.60;;;;;;;15.18;41.29;100835.75;4876422;29;20032;-81
2021/12/26 09:18:22;;;;;;;1.02;0.70;;;;;;;15.19;41.41;100829.69;4893831;29;20049;-80
2021/12/26 09:20:48;;;;;;;1.55;0.80;;;;;;;15.19;41.08;100832.28;4874343;29;20400;-80
2021/12/26 09:23:13;;;;;;;0.90;0.65;;;;;;;15.19;41.32;100834.88;4859193;29;20033;-81
2021/12/26 09:25:39;;;;;;;0.75;0.52;;;;;;;15.19;41.35;100831.44;4874064;29;20040;-80
2021/12/26 09:28:04;;;;;;;1.00;0.60;;;;;;;15.19;41.36;100834.88;4874528;29;20048;-80
2021/12/26 09:30:30;;;;;;;1.02;0.60;;;;;;;15.20;41.33;100838.38;4873538;29;20074;-80
2021/12/26 09:32:57;;;;;;;1.10;0.70;;;;;;;15.20;41.48;100831.44;4874150;29;20066;-80
2021/12/26 09:35:24;;;;;;;0.90;0.70;;;;;;;15.21;41.32;100837.50;4893235;29;20054;-80
2021/12/26 09:37:50;;;;;;;0.80;0.70;;;;;;;15.21;41.39;100835.75;4892286;29;20029;-80
2021/12/26 09:40:16;;;;;;;1.17;0.70;;;;;;;15.22;41.14;100824.53;4876921;29;20101;-80
2021/12/26 09:42:44;;;;;;;1.15;0.73;;;;;;;15.26;41.31;100824.53;4879838;29;20126;-80
2021/12/26 09:45:10;;;;;;;1.27;0.80;;;;;;;15.25;41.28;100823.66;4878209;29;20037;-80
2021/12/26 09:47:40;;;;;;;1.35;0.80;;;;;;;15.26;41.08;100829.72;4874953;29;20369;-80
2021/12/26 09:50:08;;;;;;;1.38;0.70;;;;;;;15.27;41.15;100816.75;4875249;29;20045;-80
2021/12/26 09:52:34;;;;;;;0.75;0.60;;;;;;;15.29;41.07;100819.34;4875168;29;20069;-81
2021/12/26 09:55:02;;;;;;;1.50;0.90;;;;;;;15.31;41.18;100825.38;4891895;29;20112;-81
2021/12/26 09:57:29;;;;;;;1.27;0.75;;;;;;;15.29;41.17;100809.84;4891532;29;20040;-81
